Latest Coastal Weather Observations for Kowanyama

IDQ60701

Issued at 9:31 pm EST Monday 11 December 2017 (issued every 10 minutes, with the page automatically refreshed every 10 minutes)

About coastal observations | Map of coastal stations | Coastal observations for QLD | Marine services | Other Formats
Station Details ID: 029038 Name: KOWANYAMA AIRPORT Lat: -15.48 Lon: 141.75 Height: 9.6 m
Data from the previous 72 hours. | See also: Recent months at Kowanyama
Date/Time
EST
Temp
°C
Wind Pressure Rain since
9am
mm
Weather Cloud Vis
km
Sea
Height
m
Swell
Dir  Spd
kts
Gust
kts
hPa Trend Height
m
Period
s
Dir
11/09:30pm 28.3 WSW 4 5 1008.5 - 0.0 - Clear 10 - - - -
11/09:00pm 28.7 WSW 5 7 1008.3 - 0.0 - - 10 - - - -
11/08:30pm 29.0 WSW 5 7 1008.4 - 0.0 - - 10 - - - -
11/08:00pm 29.6 WSW 5 8 1008.2 - 0.0 - - 10 - - - -
11/07:30pm 30.2 W 7 9 1007.8 - 0.0 - - 10 - - - -
11/07:00pm 31.1 WSW 7 9 1007.5 - 0.0 - - 10 - - - -
11/06:30pm 32.3 WSW 7 9 1007.3 - 0.0 - - 10 - - - -
11/06:00pm 33.1 WSW 8 10 1007.0 - 0.0 - - 10 - - - -
11/05:30pm 33.3 WSW 10 13 1006.8 - 0.0 - - 10 - - - -
11/05:00pm 33.9 W 10 15 1006.7 - 0.0 - - 10 - - - -
11/04:30pm 34.8 W 12 16 1006.6 - 0.0 - - 10 - - - -
11/04:00pm 35.7 W 11 17 1006.7 - 0.0 - Partly cloudy 10 - - - -
11/03:30pm 37.6 S 7 12 1006.7 - 0.0 - - 10 - - - -
11/03:00pm 37.2 WSW 6 8 1007.0 - 0.0 - - 10 - - - -
11/02:30pm 37.1 ESE 4 7 1007.6 - 0.0 - - 10 - - - -
11/02:00pm 36.4 SE 5 10 1008.0 - 0.0 - - 10 - - - -
11/01:30pm 36.8 E 6 11 1008.7 - 0.0 - - 10 - - - -
11/01:00pm 35.4 ESE 6 10 1009.1 - 0.0 - - 10 - - - -
11/12:30pm 35.3 ESE 8 12 1009.8 - 0.0 - - 10 - - - -
11/12:00pm 34.9 ESE 9 14 1010.3 - 0.0 - - 10 - - - -
11/11:30am 33.2 ESE 10 16 1010.6 - 0.0 - - 10 - - - -
11/11:00am 33.3 ENE 9 13 1011.0 - 0.0 - - 10 - - - -
11/10:30am 33.1 ENE 7 11 1011.2 - 0.0 - - 10 - - - -
11/10:00am 32.0 ENE 10 17 1011.7 - 0.0 - - 10 - - - -
11/09:30am 31.1 NE 9 15 1011.6 - 0.0 - - 10 - - - -
11/09:00am 30.1 ENE 8 14 1012.0 - 0.0 - - 10 - - - -
11/08:30am 29.2 ENE 10 15 1011.8 - 0.0 - - 10 - - - -
11/08:00am 28.5 NE 7 14 1011.9 - 0.0 - - 10 - - - -
11/07:30am 28.0 ENE 6 10 1012.0 - 0.0 - - 10 - - - -
11/07:00am 27.1 ENE 8 10 1011.6 - 0.0 - - 10 - - - -
11/06:30am 26.1 ENE 5 7 1011.4 - 0.0 - - 10 - - - -
11/06:00am 25.8 ENE 4 7 1011.1 - 0.0 - - 10 - - - -
11/05:30am 25.8 ENE 4 5 1010.7 - 0.0 - - 10 - - - -
11/05:00am 25.4 NE 1 4 1010.1 - 0.0 - - 10 - - - -
11/04:30am 25.7 ENE 3 4 1009.6 - 0.0 - - 10 - - - -
11/04:00am 25.6 CALM 0 0 1009.5 - 0.0 - - 10 - - - -
11/03:30am 26.0 CALM 0 0 1009.6 - 0.0 - - 10 - - - -
11/03:00am 26.3 CALM 0 0 1009.6 - 0.0 - - 10 - - - -
11/02:30am 26.6 CALM 0 0 1009.8 - 0.0 - - 10 - - - -
11/02:00am 26.5 CALM 0 0 1009.9 - 0.0 - - 10 - - - -
11/01:30am 26.9 CALM 0 0 1010.2 - 0.0 - - 10 - - - -
11/01:00am 27.3 ENE 3 4 1010.3 - 0.0 - - 10 - - - -
11/12:30am 27.0 NNE 3 4 1010.2 - 0.0 - - 10 - - - -
11/12:00am 27.5 NE 5 6 1010.3 - 0.0 - - 10 - - - -
 
Date/Time
EST
Temp
°C
Wind Pressure Rain since
9am
mm
Weather Cloud Vis
km
Sea
Height
m
Swell
Dir  Spd
kts
Gust
kts
hPa Trend Height
m
Period
s
Dir
10/11:30pm 27.4 ENE 5 8 1010.0 - 0.0 - - 10 - - - -
10/11:00pm 27.7 CALM 0 0 1009.5 - 0.0 - - 10 - - - -
10/10:30pm 27.9 WSW 1 4 1009.4 - 0.0 - - 10 - - - -
10/10:00pm 28.0 W 3 4 1009.2 - 0.0 - - 10 - - - -
10/09:30pm 28.3 WSW 3 4 1009.0 - 0.0 - - 10 - - - -
10/09:00pm 28.6 SW 3 4 1008.7 - 0.0 - - 10 - - - -
10/08:30pm 29.1 W 4 5 1008.4 - 0.0 - - 10 - - - -
10/08:00pm 29.6 W 5 6 1008.4 - 0.0 - - 10 - - - -
10/07:30pm 30.1 W 6 8 1008.3 - 0.0 - - 10 - - - -
10/07:00pm 31.1 W 6 8 1008.0 - 0.0 - - 10 - - - -
10/06:30pm 32.3 WNW 7 9 1007.7 - 0.0 - - 10 - - - -
10/06:00pm 33.8 WNW 7 10 1007.5 - 0.0 - - 10 - - - -
10/05:30pm 34.4 WNW 7 10 1007.3 - 0.0 - - 10 - - - -
10/05:00pm 35.2 WNW 7 10 1007.3 - 0.0 - - 10 - - - -
10/04:30pm 37.2 ESE 7 11 1007.1 - 0.0 - - 10 - - - -
10/04:00pm 37.3 ESE 7 11 1007.2 - 0.0 - - 10 - - - -
10/03:30pm 37.8 SE 5 9 1007.3 - 0.0 - - 10 - - - -
10/03:00pm 37.3 SSE 6 13 1007.6 - 0.0 - - 10 - - - -
10/02:30pm 37.2 SE 7 14 1007.9 - 0.0 - - 10 - - - -
10/02:00pm 35.4 SE 10 16 1008.4 - 0.0 - - 10 - - - -
10/01:30pm 35.4 SSE 8 12 1008.7 - 0.0 - - 10 - - - -
10/01:00pm 34.9 SE 9 16 1009.3 - 0.0 - - 10 - - - -
10/12:30pm 34.6 ENE 7 12 1009.5 - 0.0 - - 10 - - - -
10/12:00pm 34.8 ESE 7 14 1009.9 - 0.0 - - 10 - - - -
10/11:30am 33.9 ESE 8 12 1010.5 - 0.0 - - 10 - - - -
10/11:00am 32.9 E 8 13 1011.0 - 0.0 - - 10 - - - -
10/10:30am 32.4 ESE 11 17 1011.3 - 0.0 - - 10 - - - -
10/10:00am 31.2 E 11 17 1011.6 - 0.0 - - 10 - - - -
10/09:30am 30.4 ENE 9 16 1011.8 - 0.0 - - 10 - - - -
10/09:00am 29.5 E 7 12 1012.4 - 0.0 - - 10 - - - -
10/08:30am 28.9 E 7 12 1012.4 - 0.0 - - 10 - - - -
10/08:00am 28.3 ENE 8 12 1012.0 - 0.0 - - 10 - - - -
10/07:30am 26.8 E 4 6 1011.4 - 0.0 - - 10 - - - -
10/07:00am 25.6 ESE 1 5 1011.4 - 0.0 - - 10 - - - -
10/06:30am 24.6 SE 2 4 1011.1 - 0.0 - - 10 - - - -
10/06:00am 24.3 SE 5 6 1010.5 - 0.0 - Cloudy 10 - - - -
10/05:30am 24.5 N 1 3 1009.5 - 0.0 - Partly cloudy 10 - - - -
10/05:00am 24.7 NNW 3 4 1009.0 - 0.0 - Partly cloudy 10 - - - -
10/04:30am 24.7 N 4 5 1009.0 - 0.0 - - 10 - - - -
10/04:00am 24.5 E 5 7 1009.0 - 0.0 - - 10 - - - -
10/03:30am 24.8 ENE 4 7 1009.2 - 0.0 - - 10 - - - -
10/03:00am 25.3 ESE 3 6 1009.4 - 0.0 - Mostly cloudy 10 - - - -
10/02:30am 25.0 NNE 3 6 1009.2 - 0.0 - Partly cloudy 10 - - - -
10/02:00am 24.8 ENE 5 8 1009.6 - 0.0 - Partly cloudy 10 - - - -
10/01:30am 24.8 NE 9 15 1009.8 - 0.0 - Partly cloudy 10 - - - -
10/01:00am 24.7 NE 10 16 1010.9 - 0.0 - Partly cloudy 10 - - - -
10/12:30am 24.8 ENE 10 17 1011.1 - 0.0 - Partly cloudy 10 - - - -
10/12:04am 27.5 ENE 9 23 1010.9 - 0.0 - Partly cloudy 10 - - - -
10/12:00am 29.0 ENE 5 13 1010.7 - 0.0 - Mostly cloudy 10 - - - -
 
Date/Time
EST
Temp
°C
Wind Pressure Rain since
9am
mm
Weather Cloud Vis
km
Sea
Height
m
Swell
Dir  Spd
kts
Gust
kts
hPa Trend Height
m
Period
s
Dir
09/11:30pm 29.0 SSE 5 6 1010.6 - 0.0 - Partly cloudy 10 - - - -
09/11:00pm 29.3 ESE 6 9 1011.0 - 0.0 - Partly cloudy 10 - - - -
09/10:30pm 28.8 W 3 4 1009.8 - 0.0 - Partly cloudy 10 - - - -
09/10:00pm 28.9 SW 5 7 1009.4 - 0.0 - - 10 - - - -
09/09:30pm 29.0 W 5 6 1009.1 - 0.0 - - 10 - - - -
09/09:00pm 29.2 WSW 7 9 1009.1 - 0.0 - - 10 - - - -
09/08:30pm 29.4 WSW 7 9 1009.1 - 0.0 - - 10 - - - -
09/08:00pm 29.6 WSW 6 8 1009.0 - 0.0 - - 10 - - - -
09/07:30pm 29.9 W 7 11 1009.0 - 0.0 - - 10 - - - -
09/07:00pm 30.3 W 10 14 1008.5 - 0.0 - Partly cloudy 10 - - - -
09/06:30pm 31.3 WSW 10 13 1007.8 - 0.0 - - 10 - - - -
09/06:00pm 32.5 WNW 12 15 1007.5 - 0.0 - - 10 - - - -
09/05:30pm 31.1 NNE 6 10 1007.7 - 0.0 - Partly cloudy 10 - - - -
09/05:00pm 33.6 WNW 8 12 1008.1 - 0.0 - Partly cloudy 10 - - - -
09/04:30pm 33.7 WSW 11 16 1007.1 - 0.0 - - 10 - - - -
09/04:00pm 33.8 WSW 11 16 1007.1 - 0.0 - Partly cloudy 10 - - - -
09/03:30pm 35.0 W 11 15 1007.2 - 0.0 - - 10 - - - -
09/03:00pm 35.7 WNW 11 15 1007.4 - 0.0 - Partly cloudy 10 - - - -
09/02:30pm 35.5 W 9 15 1007.8 - 0.0 - Partly cloudy 10 - - - -
09/02:00pm 35.2 WNW 8 11 1007.9 - 0.0 - Partly cloudy 10 - - - -
09/01:30pm 34.8 WNW 8 12 1008.3 - 0.0 - Partly cloudy 10 - - - -
09/01:00pm 35.0 S 3 7 1008.8 - 0.0 - Partly cloudy 10 - - - -
09/12:30pm 35.5 SW 5 11 1009.2 - 0.0 - Partly cloudy 10 - - - -
09/12:00pm 34.6 WNW 3 8 1009.6 - 0.0 - Mostly cloudy 10 - - - -
09/11:30am 34.7 NNE 3 6 1010.1 - 0.0 - Partly cloudy 10 - - - -
09/11:00am 34.3 NNE 3 5 1010.6 - 0.0 - Partly cloudy 10 - - - -
09/10:30am 34.2 NE 4 8 1010.9 - 0.0 - - 10 - - - -
09/10:00am 33.0 WNW 3 7 1011.1 - 0.0 - - 10 - - - -
09/09:30am 32.1 NNE 5 8 1011.2 - 0.0 - - 10 - - - -
09/09:00am 31.2 N 6 9 1011.3 - 0.0 - Mostly clear 10 - - - -
09/08:30am 30.6 NNE 5 8 1011.2 - 0.0 - Partly cloudy 10 - - - -
09/08:00am 29.4 NNE 7 10 1011.0 - 0.0 - - 10 - - - -
09/07:30am 28.8 NE 7 11 1010.8 - 0.0 - Partly cloudy 10 - - - -
09/07:00am 27.2 NNE 5 8 1010.1 - 0.0 - Partly cloudy 10 - - - -
09/06:30am 26.4 NE 5 6 1009.9 - 0.0 - - 10 - - - -
09/06:00am 26.0 NNE 5 6 1009.6 - 0.0 - - 10 - - - -
09/05:30am 26.1 NE 3 4 1009.7 - 0.0 - - 10 - - - -
09/05:00am 26.3 NE 4 5 1009.8 - 0.0 - - 10 - - - -
09/04:30am 26.6 ENE 4 5 1009.8 - 0.0 - - 10 - - - -
09/04:00am 26.9 E 4 6 1009.6 - 0.0 - - 10 - - - -
09/03:30am 26.9 E 4 6 1009.3 - 0.0 - - 10 - - - -
09/03:00am 26.9 CALM 0 0 1008.9 - 0.0 - Mostly clear 10 - - - -
09/02:30am 27.1 N 2 4 1008.4 - 0.0 - - 10 - - - -
09/02:00am 27.6 N 3 5 1008.4 - 0.0 - Partly cloudy 10 - - - -
09/01:30am 27.9 N 1 5 1008.6 - 0.0 - Partly cloudy 10 - - - -
09/01:00am 28.1 NNE 4 6 1009.4 - 0.0 - Partly cloudy 10 - - - -
09/12:30am 28.1 E 5 6 1010.0 - 0.0 - Partly cloudy 10 - - - -
09/12:00am 27.6 ENE 5 6 1009.9 - 0.0 - Partly cloudy 10 - - - -
 
Date/Time
EST
Temp
°C
Wind Pressure Rain since
9am
mm
Weather Cloud Vis
km
Sea
Height
m
Swell
Dir  Spd
kts
Gust
kts
hPa Trend Height
m
Period
s
Dir
08/11:30pm 27.2 N 3 5 1009.7 - 0.0 - - 10 - - - -
08/11:00pm 28.0 NW 2 3 1009.4 - 0.0 - - 10 - - - -
08/10:30pm 28.3 WNW 3 3 1009.3 - 0.0 - - 10 - - - -
08/10:00pm 28.8 NNW 3 4 1009.3 - 0.0 - - 10 - - - -

Other Formats:

Comma delimited format used in spreadsheet applications
http://www.bom.gov.au/fwo/IDQ60701/IDQ60701.94268.axf

JavaScript Object Notation format (JSON) in row-major order
http://www.bom.gov.au/fwo/IDQ60701/IDQ60701.94268.json